createdAt,value
2017-10-26T00:00:56.485Z,9.20
2017-10-26T00:03:23.928Z,9.20
2017-10-26T00:05:52.143Z,9.10
2017-10-26T00:08:19.592Z,9.10
2017-10-26T00:10:47.037Z,9.00
2017-10-26T00:13:14.494Z,9.00
2017-10-26T00:15:41.939Z,9.00
2017-10-26T00:18:10.148Z,8.90
2017-10-26T00:20:37.605Z,8.90
2017-10-26T00:23:05.049Z,9.00
2017-10-26T00:25:32.504Z,9.00
2017-10-26T00:27:59.946Z,9.00
2017-10-26T00:30:28.168Z,8.90
2017-10-26T00:32:55.612Z,8.90
2017-10-26T00:35:23.067Z,9.00
2017-10-26T00:37:50.515Z,9.10
2017-10-26T00:40:17.988Z,9.20
2017-10-26T00:42:45.433Z,9.30
2017-10-26T00:45:12.876Z,9.50
2017-10-26T00:47:40.324Z,9.60
2017-10-26T00:50:08.535Z,9.80
2017-10-26T00:52:35.984Z,9.80
2017-10-26T00:55:03.429Z,9.90
2017-10-26T00:57:30.881Z,10.00
2017-10-26T00:59:58.323Z,10.20
2017-10-26T01:02:26.538Z,10.30
2017-10-26T01:04:53.977Z,10.30
2017-10-26T01:07:21.423Z,10.40
2017-10-26T01:09:49.640Z,10.40
2017-10-26T01:12:17.096Z,10.40
2017-10-26T01:14:44.540Z,10.50
2017-10-26T01:17:12.003Z,10.50
2017-10-26T01:19:39.457Z,10.60
2017-10-26T01:22:06.916Z,10.60
2017-10-26T01:24:34.357Z,10.60
2017-10-26T01:27:01.823Z,10.70
2017-10-26T01:29:29.279Z,10.70
2017-10-26T01:31:56.727Z,10.70
2017-10-26T01:34:24.939Z,10.60
2017-10-26T01:36:52.399Z,10.60
2017-10-26T01:39:19.855Z,10.60
2017-10-26T01:41:47.317Z,10.50
2017-10-26T01:44:14.768Z,10.50
2017-10-26T01:46:42.213Z,10.50
2017-10-26T01:49:09.664Z,10.50
2017-10-26T01:51:37.111Z,10.50
2017-10-26T01:54:04.577Z,10.50
2017-10-26T01:56:32.024Z,10.60
2017-10-26T01:58:59.479Z,10.70
2017-10-26T02:01:27.697Z,10.70
2017-10-26T02:03:55.159Z,10.70
2017-10-26T02:06:22.608Z,10.80
2017-10-26T02:08:50.067Z,10.80
2017-10-26T02:11:17.528Z,10.80
2017-10-26T02:13:44.982Z,10.90
2017-10-26T02:16:12.430Z,10.90
2017-10-26T02:18:39.897Z,11.00
2017-10-26T02:21:07.344Z,11.10
2017-10-26T02:23:34.806Z,11.10
2017-10-26T02:26:02.266Z,11.00
2017-10-26T02:28:41.515Z,11.00
2017-10-26T02:31:20.761Z,10.90
2017-10-26T02:33:48.208Z,10.80
2017-10-26T02:36:15.656Z,10.70
2017-10-26T02:38:43.108Z,10.50
2017-10-26T02:41:10.570Z,10.40
2017-10-26T02:43:38.019Z,10.20
2017-10-26T02:46:05.472Z,10.10
2017-10-26T02:48:32.918Z,9.90
2017-10-26T02:51:00.375Z,9.80
2017-10-26T02:53:27.832Z,9.60
2017-10-26T02:55:55.292Z,9.50
2017-10-26T02:58:22.740Z,9.30
2017-10-26T03:00:50.973Z,9.10
2017-10-26T03:03:18.419Z,9.10
2017-10-26T03:05:45.885Z,9.00
2017-10-26T03:08:13.321Z,8.90
2017-10-26T03:10:40.781Z,8.90
2017-10-26T03:13:08.224Z,8.80
2017-10-26T03:15:35.677Z,8.70
2017-10-26T03:18:03.128Z,8.70
2017-10-26T03:20:31.351Z,8.50
2017-10-26T03:22:58.800Z,8.50
2017-10-26T03:25:26.252Z,8.50
2017-10-26T03:27:53.708Z,8.50
2017-10-26T03:30:21.168Z,8.50
2017-10-26T03:32:48.613Z,8.50
2017-10-26T03:35:16.060Z,8.50
2017-10-26T03:37:43.512Z,8.50
2017-10-26T03:40:10.964Z,8.60
2017-10-26T03:42:39.186Z,8.60
2017-10-26T03:45:06.646Z,8.60
2017-10-26T03:47:34.103Z,8.60
2017-10-26T03:50:01.557Z,8.70
2017-10-26T03:52:29.027Z,8.80
2017-10-26T03:54:56.479Z,8.90
2017-10-26T03:57:23.978Z,9.00
2017-10-26T03:59:52.312Z,9.10
2017-10-26T04:02:19.766Z,9.10
2017-10-26T04:04:47.215Z,9.10
2017-10-26T04:07:14.700Z,9.10
2017-10-26T04:09:42.155Z,9.10
2017-10-26T04:12:09.607Z,9.10
2017-10-26T04:14:37.069Z,9.20
2017-10-26T04:17:04.519Z,9.10
2017-10-26T04:19:31.968Z,9.20
2017-10-26T04:21:59.419Z,9.20
2017-10-26T04:24:26.867Z,9.20
2017-10-26T04:26:54.328Z,9.20
2017-10-26T04:29:21.786Z,9.20
2017-10-26T04:31:49.249Z,9.10
2017-10-26T04:34:16.724Z,9.10
2017-10-26T04:36:44.198Z,9.00
2017-10-26T04:39:11.675Z,9.00
2017-10-26T04:41:39.124Z,8.90
2017-10-26T04:44:06.584Z,8.80
2017-10-26T04:46:34.033Z,8.80
2017-10-26T04:49:01.477Z,8.80
2017-10-26T04:51:28.945Z,8.80
2017-10-26T04:53:56.401Z,8.80
2017-10-26T04:56:23.843Z,8.80
2017-10-26T04:58:51.292Z,8.80
2017-10-26T05:01:18.735Z,8.90
2017-10-26T05:03:46.195Z,9.00
2017-10-26T05:06:13.668Z,9.00
2017-10-26T05:08:41.115Z,9.00
2017-10-26T05:11:08.612Z,9.00
2017-10-26T05:13:36.072Z,8.90
2017-10-26T05:16:03.501Z,8.80
2017-10-26T05:18:30.965Z,8.90
2017-10-26T05:20:58.416Z,8.80
2017-10-26T05:23:25.876Z,8.80
2017-10-26T05:25:53.330Z,8.70
2017-10-26T05:28:20.776Z,8.70
2017-10-26T05:30:48.232Z,8.70
2017-10-26T05:33:15.696Z,8.70
2017-10-26T05:35:43.162Z,8.60
2017-10-26T05:38:10.597Z,8.50
2017-10-26T05:40:38.051Z,8.40
2017-10-26T05:43:06.293Z,8.20
2017-10-26T05:45:33.737Z,8.20
2017-10-26T05:48:01.209Z,8.20
2017-10-26T05:50:28.693Z,8.10
2017-10-26T05:52:56.137Z,8.00
2017-10-26T05:55:23.591Z,7.90
2017-10-26T05:57:51.112Z,7.90
2017-10-26T06:00:18.551Z,7.80
2017-10-26T06:02:46.008Z,7.70
2017-10-26T06:05:14.221Z,7.70
2017-10-26T06:07:41.681Z,7.70
2017-10-26T06:10:09.149Z,7.70
2017-10-26T06:12:36.608Z,7.70
2017-10-26T06:15:04.069Z,7.70
2017-10-26T06:17:31.513Z,7.80
2017-10-26T06:19:58.974Z,7.90
2017-10-26T06:22:26.449Z,8.00
2017-10-26T06:24:53.908Z,8.00
2017-10-26T06:27:21.361Z,8.10
2017-10-26T06:29:48.823Z,8.20
2017-10-26T06:32:16.289Z,8.30
2017-10-26T06:34:43.750Z,8.30
2017-10-26T06:37:11.198Z,8.40
2017-10-26T06:39:38.647Z,8.40
2017-10-26T06:42:06.109Z,8.50
2017-10-26T06:44:33.553Z,8.50
2017-10-26T06:47:01.000Z,8.60
2017-10-26T06:49:28.455Z,8.70
2017-10-26T06:51:55.923Z,8.80
2017-10-26T06:54:23.369Z,8.80
2017-10-26T06:56:50.851Z,8.90
2017-10-26T06:59:18.292Z,9.00
2017-10-26T07:01:45.744Z,9.10
2017-10-26T07:04:13.203Z,9.20
2017-10-26T07:06:40.657Z,9.30
2017-10-26T07:09:08.107Z,9.40
2017-10-26T07:11:35.565Z,9.50
2017-10-26T07:14:03.008Z,9.60
2017-10-26T07:16:30.475Z,9.80
2017-10-26T07:18:58.684Z,10.00
2017-10-26T07:21:26.146Z,10.00
2017-10-26T07:23:53.592Z,10.00
2017-10-26T07:26:21.054Z,10.10
2017-10-26T07:28:48.521Z,10.10
2017-10-26T07:31:15.979Z,10.20
2017-10-26T07:33:43.419Z,10.20
2017-10-26T07:36:10.891Z,10.30
2017-10-26T07:38:38.345Z,10.40
2017-10-26T07:41:05.788Z,10.50
2017-10-26T07:43:33.243Z,10.60
2017-10-26T07:46:00.700Z,10.70
2017-10-26T07:48:28.172Z,10.80
2017-10-26T07:50:55.612Z,11.00
2017-10-26T07:53:23.068Z,11.20
2017-10-26T07:55:50.518Z,11.30
2017-10-26T07:58:18.737Z,11.70
2017-10-26T08:00:46.193Z,11.70
2017-10-26T08:03:13.642Z,11.90
2017-10-26T08:05:41.098Z,12.20
2017-10-26T08:08:08.549Z,12.50
2017-10-26T08:10:36.015Z,12.70
2017-10-26T08:13:03.470Z,12.90
2017-10-26T08:15:33.822Z,13.00
2017-10-26T08:18:01.280Z,13.10
2017-10-26T08:20:28.728Z,13.30
2017-10-26T08:22:56.184Z,13.40
2017-10-26T08:25:23.638Z,13.70
2017-10-26T08:27:51.107Z,13.70
2017-10-26T08:30:18.555Z,13.80
2017-10-26T08:32:46.003Z,13.80
2017-10-26T08:35:13.455Z,13.80
2017-10-26T08:37:41.059Z,13.80
2017-10-26T08:40:08.512Z,13.60
2017-10-26T08:42:35.964Z,13.40
2017-10-26T08:45:03.427Z,13.30
2017-10-26T08:47:30.881Z,13.10
2017-10-26T08:49:58.327Z,13.10
2017-10-26T08:52:25.842Z,13.20
2017-10-26T08:54:53.310Z,13.20
2017-10-26T08:57:21.520Z,13.30
2017-10-26T08:59:48.982Z,13.30
2017-10-26T09:02:16.427Z,13.70
2017-10-26T09:04:43.885Z,14.10
2017-10-26T09:07:11.328Z,14.60
2017-10-26T09:09:38.789Z,15.00
2017-10-26T09:12:06.236Z,15.40
2017-10-26T09:14:34.472Z,15.90
2017-10-26T09:17:01.928Z,15.90
2017-10-26T09:19:29.384Z,16.00
2017-10-26T09:21:56.862Z,16.10
2017-10-26T09:24:24.314Z,16.00
2017-10-26T09:26:51.772Z,15.80
2017-10-26T09:29:19.237Z,15.70
2017-10-26T09:31:46.687Z,15.60
2017-10-26T09:34:14.147Z,15.50
2017-10-26T09:36:41.608Z,15.50
2017-10-26T09:39:09.079Z,15.50
2017-10-26T09:41:36.539Z,15.70
2017-10-26T09:44:04.000Z,16.00
2017-10-26T09:46:31.457Z,16.40
2017-10-26T09:48:58.908Z,16.90
2017-10-26T09:51:26.373Z,17.40
2017-10-26T09:53:53.819Z,17.70
2017-10-26T09:56:21.282Z,18.00
2017-10-26T09:58:48.732Z,18.10
2017-10-26T10:01:16.203Z,18.10
2017-10-26T10:03:43.659Z,18.20
2017-10-26T10:06:11.141Z,18.30
2017-10-26T10:08:39.352Z,18.70
2017-10-26T10:11:06.804Z,18.60
2017-10-26T10:13:34.449Z,18.90
2017-10-26T10:16:02.688Z,19.00
2017-10-26T10:18:30.185Z,19.00
2017-10-26T10:20:58.422Z,19.00
2017-10-26T10:23:25.885Z,18.90
2017-10-26T10:25:53.357Z,18.90
2017-10-26T10:28:20.842Z,18.70
2017-10-26T10:30:48.301Z,18.70
2017-10-26T10:33:15.769Z,18.70
2017-10-26T10:35:43.242Z,18.80
2017-10-26T10:38:10.737Z,18.80
2017-10-26T10:40:38.229Z,18.80
2017-10-26T10:43:06.465Z,18.70
2017-10-26T10:45:33.911Z,18.70
2017-10-26T10:48:03.535Z,18.70
2017-10-26T10:50:30.999Z,18.60
2017-10-26T10:52:58.525Z,18.50
2017-10-26T10:55:26.002Z,18.40
2017-10-26T10:57:53.479Z,18.30
2017-10-26T11:00:26.623Z,18.20
2017-10-26T11:02:54.077Z,18.30
2017-10-26T11:05:21.536Z,18.40
2017-10-26T11:07:48.998Z,18.70
2017-10-26T11:10:16.432Z,18.80
2017-10-26T11:12:44.664Z,19.10
2017-10-26T11:15:12.105Z,19.10
2017-10-26T11:17:39.567Z,19.30
2017-10-26T11:20:07.012Z,19.30
2017-10-26T11:22:34.682Z,19.20
2017-10-26T11:25:02.130Z,19.20
2017-10-26T11:27:29.596Z,19.30
2017-10-26T11:29:57.189Z,19.30
2017-10-26T11:32:24.660Z,19.20
2017-10-26T11:34:52.134Z,19.20
2017-10-26T11:37:20.393Z,19.30
2017-10-26T11:39:47.869Z,19.20
2017-10-26T11:42:16.141Z,19.10
2017-10-26T11:44:43.619Z,19.10
2017-10-26T11:47:11.850Z,19.00
2017-10-26T11:49:39.345Z,19.00
2017-10-26T11:52:06.815Z,19.00
2017-10-26T11:54:35.062Z,19.00
2017-10-26T11:57:02.522Z,19.00
2017-10-26T11:59:30.009Z,18.90
2017-10-26T12:01:57.488Z,18.90
2017-10-26T12:04:24.964Z,18.90
2017-10-26T12:06:52.426Z,18.90
2017-10-26T12:09:19.880Z,18.90
2017-10-26T12:11:47.331Z,18.80
2017-10-26T12:14:14.811Z,18.80
2017-10-26T12:16:42.259Z,18.70
2017-10-26T12:19:09.717Z,18.70
2017-10-26T12:21:37.197Z,18.60
2017-10-26T12:24:04.645Z,18.70
2017-10-26T12:26:32.100Z,18.70
2017-10-26T12:28:59.569Z,18.70
2017-10-26T12:31:27.020Z,18.70
2017-10-26T12:33:54.481Z,18.70
2017-10-26T12:36:21.949Z,18.60
2017-10-26T12:38:49.407Z,18.60
2017-10-26T12:41:16.860Z,18.60
2017-10-26T12:43:44.320Z,18.60
2017-10-26T12:46:11.768Z,18.60
2017-10-26T12:48:39.216Z,18.70
2017-10-26T12:51:06.677Z,18.80
2017-10-26T12:53:34.129Z,18.80
2017-10-26T12:56:01.587Z,18.80
2017-10-26T12:58:29.022Z,18.70
2017-10-26T13:00:56.480Z,18.70
2017-10-26T13:03:23.929Z,18.70
2017-10-26T13:05:51.391Z,18.80
2017-10-26T13:08:18.837Z,18.70
2017-10-26T13:10:47.059Z,18.80
2017-10-26T13:13:14.513Z,18.70
2017-10-26T13:15:41.969Z,18.80
2017-10-26T13:18:09.418Z,18.70
2017-10-26T13:20:36.873Z,18.70
2017-10-26T13:23:04.316Z,18.80
2017-10-26T13:25:31.768Z,18.70
2017-10-26T13:27:59.216Z,18.80
2017-10-26T13:30:27.436Z,18.70
2017-10-26T13:32:54.880Z,18.70
2017-10-26T13:35:22.339Z,18.70
2017-10-26T13:37:49.788Z,18.80
2017-10-26T13:40:17.243Z,18.80
2017-10-26T13:42:44.701Z,18.70
2017-10-26T13:45:12.175Z,18.70
2017-10-26T13:47:39.624Z,18.80
2017-10-26T13:50:07.111Z,18.80
2017-10-26T13:52:34.571Z,18.80
2017-10-26T13:55:02.027Z,18.80
2017-10-26T13:57:29.482Z,18.70
2017-10-26T13:59:56.924Z,18.70
2017-10-26T14:02:24.390Z,18.70
2017-10-26T14:04:51.832Z,18.70
2017-10-26T14:07:19.292Z,18.70
2017-10-26T14:09:46.740Z,18.60
2017-10-26T14:12:14.245Z,18.50
2017-10-26T14:14:41.707Z,18.60
2017-10-26T14:17:09.165Z,18.60
2017-10-26T14:19:36.619Z,18.60
2017-10-26T14:22:04.074Z,18.60
2017-10-26T14:24:31.533Z,18.50
2017-10-26T14:26:58.983Z,18.50
2017-10-26T14:29:26.450Z,18.60
2017-10-26T14:31:53.906Z,18.60
2017-10-26T14:34:21.358Z,18.50
2017-10-26T14:36:48.812Z,18.30
2017-10-26T14:39:16.286Z,18.20
2017-10-26T14:41:43.748Z,18.10
2017-10-26T14:44:11.201Z,18.20
2017-10-26T14:46:39.529Z,18.10
2017-10-26T14:49:07.765Z,18.00
2017-10-26T14:51:35.220Z,17.90
2017-10-26T14:54:02.691Z,18.00
2017-10-26T14:56:30.156Z,18.00
2017-10-26T14:58:57.629Z,18.00
2017-10-26T15:01:25.068Z,17.90
2017-10-26T15:03:52.537Z,17.80
2017-10-26T15:06:19.988Z,17.80
2017-10-26T15:08:47.459Z,17.80
2017-10-26T15:11:14.915Z,17.80
2017-10-26T15:13:42.373Z,17.80
2017-10-26T15:16:09.832Z,17.70
2017-10-26T15:18:42.909Z,17.70
2017-10-26T15:21:10.362Z,17.70
2017-10-26T15:23:37.835Z,17.60
2017-10-26T15:26:06.169Z,17.50
2017-10-26T15:28:33.637Z,17.50
2017-10-26T15:31:01.089Z,17.40
2017-10-26T15:33:28.585Z,17.20
2017-10-26T15:35:56.033Z,17.10
2017-10-26T15:38:23.498Z,17.10
2017-10-26T15:40:50.955Z,16.90
2017-10-26T15:43:18.565Z,16.80
2017-10-26T15:45:46.025Z,16.80
2017-10-26T15:48:13.506Z,16.70
2017-10-26T15:50:40.979Z,16.60
2017-10-26T15:53:08.440Z,16.50
2017-10-26T15:55:35.900Z,16.30
2017-10-26T15:58:03.343Z,16.20
2017-10-26T16:00:30.820Z,16.10
2017-10-26T16:02:58.293Z,16.00
2017-10-26T16:05:25.732Z,15.90
2017-10-26T16:07:53.187Z,15.80
2017-10-26T16:10:20.640Z,15.70
2017-10-26T16:12:48.091Z,15.60
2017-10-26T16:15:15.547Z,15.60
2017-10-26T16:17:43.014Z,15.60
2017-10-26T16:20:10.469Z,15.50
2017-10-26T16:22:37.920Z,15.50
2017-10-26T16:25:05.388Z,15.40
2017-10-26T16:27:32.847Z,15.50
2017-10-26T16:30:00.301Z,15.50
2017-10-26T16:32:27.748Z,15.50
2017-10-26T16:34:55.204Z,15.50
2017-10-26T16:37:22.661Z,15.50
2017-10-26T16:39:50.120Z,15.50
2017-10-26T16:42:17.581Z,15.40
2017-10-26T16:44:45.041Z,15.30
2017-10-26T16:47:12.498Z,15.20
2017-10-26T16:49:39.972Z,15.20
2017-10-26T16:52:07.437Z,15.30
2017-10-26T16:54:34.893Z,15.20
2017-10-26T16:57:02.351Z,15.10
2017-10-26T16:59:29.821Z,15.00
2017-10-26T17:01:57.318Z,15.00
2017-10-26T17:04:25.538Z,14.80
2017-10-26T17:06:52.993Z,14.80
2017-10-26T17:09:20.454Z,14.70
2017-10-26T17:11:47.909Z,14.60
2017-10-26T17:14:15.378Z,14.50
2017-10-26T17:16:42.844Z,14.50
2017-10-26T17:19:10.306Z,14.50
2017-10-26T17:21:37.762Z,14.40
2017-10-26T17:24:05.229Z,14.30
2017-10-26T17:26:32.687Z,14.30
2017-10-26T17:29:00.153Z,14.30
2017-10-26T17:31:27.616Z,14.20
2017-10-26T17:33:55.069Z,14.10
2017-10-26T17:36:22.531Z,14.10
2017-10-26T17:38:50.009Z,14.00
2017-10-26T17:41:18.293Z,13.80
2017-10-26T17:43:45.762Z,13.80
2017-10-26T17:46:13.267Z,13.80
2017-10-26T17:48:40.766Z,13.70
2017-10-26T17:51:08.300Z,13.60
2017-10-26T17:53:35.761Z,13.40
2017-10-26T17:56:03.241Z,13.40
2017-10-26T17:58:31.467Z,13.40
2017-10-26T18:00:58.922Z,13.40
2017-10-26T18:03:26.377Z,13.20
2017-10-26T18:05:53.827Z,13.10
2017-10-26T18:08:21.295Z,12.90
2017-10-26T18:10:48.750Z,12.80
2017-10-26T18:13:16.206Z,12.70
2017-10-26T18:15:43.661Z,12.60
2017-10-26T18:18:11.117Z,12.40
2017-10-26T18:20:38.572Z,12.30
2017-10-26T18:23:06.035Z,12.30
2017-10-26T18:25:33.485Z,12.20
2017-10-26T18:28:00.966Z,12.10
2017-10-26T18:30:28.419Z,12.10
2017-10-26T18:32:55.872Z,12.00
2017-10-26T18:35:23.320Z,12.00
2017-10-26T18:37:51.603Z,11.90
2017-10-26T18:40:19.061Z,11.90
2017-10-26T18:42:46.524Z,11.90
2017-10-26T18:45:13.979Z,11.80
2017-10-26T18:47:41.563Z,11.70
2017-10-26T18:50:09.000Z,11.70
2017-10-26T18:52:36.471Z,11.60
2017-10-26T18:55:03.925Z,11.60
2017-10-26T18:57:31.376Z,11.60
2017-10-26T18:59:59.140Z,11.50
2017-10-26T19:02:26.598Z,11.40
2017-10-26T19:04:54.055Z,11.40
2017-10-26T19:07:21.511Z,11.40
2017-10-26T19:09:48.973Z,11.40
2017-10-26T19:12:16.438Z,11.30
2017-10-26T19:14:43.923Z,11.30
2017-10-26T19:17:11.378Z,11.30
2017-10-26T19:19:38.845Z,11.30
2017-10-26T19:22:06.290Z,11.30
2017-10-26T19:24:33.757Z,11.30
2017-10-26T19:27:01.213Z,11.20
2017-10-26T19:29:28.692Z,11.20
2017-10-26T19:31:56.917Z,11.20
2017-10-26T19:34:24.378Z,11.20
2017-10-26T19:36:51.837Z,11.20
2017-10-26T19:39:19.295Z,11.20
2017-10-26T19:41:46.761Z,11.20
2017-10-26T19:44:29.051Z,11.20
2017-10-26T19:46:56.515Z,11.10
2017-10-26T19:49:24.010Z,11.10
2017-10-26T19:51:51.452Z,11.00
2017-10-26T19:54:18.908Z,10.90
2017-10-26T19:56:46.369Z,10.80
2017-10-26T19:59:14.735Z,10.80
2017-10-26T20:01:42.877Z,10.70
2017-10-26T20:04:10.460Z,10.70
2017-10-26T20:06:38.738Z,10.60
2017-10-26T20:09:06.293Z,10.60
2017-10-26T20:11:33.971Z,10.60
2017-10-26T20:14:01.548Z,10.50
2017-10-26T20:16:29.101Z,10.50
2017-10-26T20:18:56.564Z,10.50
2017-10-26T20:21:24.064Z,10.50
2017-10-26T20:23:52.284Z,10.50
2017-10-26T20:26:19.756Z,10.40
2017-10-26T20:28:47.230Z,10.40
2017-10-26T20:31:14.676Z,10.40
2017-10-26T20:33:42.148Z,10.40
2017-10-26T20:36:09.603Z,10.40
2017-10-26T20:38:37.059Z,10.40
2017-10-26T20:41:04.536Z,10.40
2017-10-26T20:43:31.988Z,10.50
2017-10-26T20:45:59.459Z,10.50
2017-10-26T20:48:27.682Z,10.50
2017-10-26T20:51:00.699Z,10.50
2017-10-26T20:53:33.815Z,10.50
2017-10-26T20:56:07.586Z,10.50
2017-10-26T20:58:40.659Z,10.40
2017-10-26T21:04:15.345Z,10.50
2017-10-26T21:06:42.792Z,10.50
2017-10-26T21:09:16.017Z,10.50
2017-10-26T21:11:49.234Z,10.40
2017-10-26T21:14:22.269Z,10.40
2017-10-26T21:16:49.741Z,10.30
2017-10-26T21:19:17.201Z,10.30
2017-10-26T21:21:44.690Z,10.20
2017-10-26T21:24:12.142Z,10.20
2017-10-26T21:26:39.614Z,10.20
2017-10-26T21:29:07.286Z,10.20
2017-10-26T21:31:35.533Z,10.10
2017-10-26T21:34:02.989Z,10.10
2017-10-26T21:36:30.441Z,10.10
2017-10-26T21:38:57.913Z,10.10
2017-10-26T21:41:25.394Z,10.00
2017-10-26T21:43:53.620Z,10.00
2017-10-26T21:46:21.081Z,10.00
2017-10-26T21:48:48.565Z,10.00
2017-10-26T21:51:16.026Z,10.00
2017-10-26T21:53:43.493Z,10.00
2017-10-26T21:56:10.950Z,9.90
2017-10-26T21:58:38.411Z,9.90
2017-10-26T22:04:01.954Z,9.90
2017-10-26T22:06:29.407Z,9.90
2017-10-26T22:08:56.870Z,9.80
2017-10-26T22:11:24.324Z,9.80
2017-10-26T22:13:51.806Z,9.80
2017-10-26T22:16:20.026Z,9.70
2017-10-26T22:18:47.525Z,9.60
2017-10-26T22:21:15.764Z,9.60
2017-10-26T22:23:43.221Z,9.60
2017-10-26T22:26:10.694Z,9.60
2017-10-26T22:28:38.148Z,9.60
2017-10-26T22:31:05.634Z,9.60
2017-10-26T22:33:33.093Z,9.60
2017-10-26T22:36:01.327Z,9.60
2017-10-26T22:38:28.793Z,9.60
2017-10-26T22:40:56.245Z,9.60
2017-10-26T22:43:23.689Z,9.60
2017-10-26T22:45:51.151Z,9.60
2017-10-26T22:48:18.611Z,9.60
2017-10-26T22:50:46.086Z,9.60
2017-10-26T22:53:13.532Z,9.60
2017-10-26T22:55:40.980Z,9.60
2017-10-26T22:58:08.436Z,9.60
2017-10-26T23:00:35.945Z,9.60
2017-10-26T23:03:04.170Z,9.50
2017-10-26T23:05:31.629Z,9.50
2017-10-26T23:07:59.101Z,9.50
2017-10-26T23:10:26.553Z,9.50
2017-10-26T23:12:54.009Z,9.60
2017-10-26T23:15:21.469Z,9.60
2017-10-26T23:17:48.922Z,9.70
2017-10-26T23:20:16.385Z,9.70
2017-10-26T23:22:43.896Z,9.80
2017-10-26T23:25:12.121Z,9.90
2017-10-26T23:27:39.573Z,9.90
2017-10-26T23:30:07.034Z,10.00
2017-10-26T23:32:34.497Z,10.00
2017-10-26T23:35:01.955Z,10.10
2017-10-26T23:37:29.413Z,10.20
2017-10-26T23:39:56.870Z,10.20
2017-10-26T23:45:20.097Z,10.20
2017-10-26T23:47:47.553Z,10.20
2017-10-26T23:50:15.007Z,10.10
2017-10-26T23:52:42.466Z,10.10
2017-10-26T23:55:09.921Z,10.20
2017-10-26T23:57:37.390Z,10.20
